createdAt,value
2023-01-07T00:01:14.958Z,100.00
2023-01-07T00:03:18.700Z,100.00
2023-01-07T00:05:22.265Z,100.00
2023-01-07T00:07:25.803Z,100.00
2023-01-07T00:09:30.992Z,100.00
2023-01-07T00:11:36.663Z,100.00
2023-01-07T00:13:40.624Z,100.00
2023-01-07T00:15:52.234Z,100.00
2023-01-07T00:17:55.829Z,100.00
2023-01-07T00:19:59.609Z,100.00
2023-01-07T00:22:03.457Z,100.00
2023-01-07T00:24:08.240Z,100.00
2023-01-07T00:26:15.312Z,100.00
2023-01-07T00:28:18.806Z,100.00
2023-01-07T00:30:22.822Z,100.00
2023-01-07T00:32:46.473Z,100.00
2023-01-07T00:34:50.214Z,100.00
2023-01-07T00:37:14.549Z,100.00
2023-01-07T00:39:21.030Z,100.00
2023-01-07T00:41:26.291Z,100.00
2023-01-07T00:43:30.043Z,100.00
2023-01-07T00:45:35.197Z,100.00
2023-01-07T00:47:38.728Z,100.00
2023-01-07T00:49:42.374Z,100.00
2023-01-07T00:51:46.054Z,100.00
2023-01-07T00:53:50.237Z,100.00
2023-01-07T00:55:53.873Z,100.00
2023-01-07T00:57:59.281Z,100.00
2023-01-07T01:00:03.174Z,100.00
2023-01-07T01:02:07.170Z,100.00
2023-01-07T01:04:11.469Z,100.00
2023-01-07T01:06:16.772Z,100.00
2023-01-07T01:08:21.870Z,100.00
2023-01-07T01:10:25.694Z,100.00
2023-01-07T01:12:29.830Z,100.00
2023-01-07T01:14:35.015Z,100.00
2023-01-07T01:16:39.100Z,100.00
2023-01-07T01:18:43.843Z,100.00
2023-01-07T01:20:47.492Z,100.00
2023-01-07T01:22:51.158Z,100.00
2023-01-07T01:24:55.359Z,100.00
2023-01-07T01:27:01.128Z,100.00
2023-01-07T01:29:04.927Z,100.00
2023-01-07T01:31:11.060Z,100.00
2023-01-07T01:33:22.862Z,100.00
2023-01-07T01:35:26.471Z,100.00
2023-01-07T01:37:30.781Z,100.00
2023-01-07T01:39:35.049Z,100.00
2023-01-07T01:41:38.943Z,100.00
2023-01-07T01:43:45.818Z,100.00
2023-01-07T01:45:49.836Z,100.00
2023-01-07T01:47:59.486Z,100.00
2023-01-07T01:50:09.771Z,100.00
2023-01-07T01:52:16.948Z,100.00
2023-01-07T01:54:22.111Z,100.00
2023-01-07T01:56:33.651Z,100.00
2023-01-07T01:58:40.524Z,100.00
2023-01-07T02:00:44.784Z,100.00
2023-01-07T02:02:53.816Z,100.00
2023-01-07T02:04:59.663Z,100.00
2023-01-07T02:07:06.907Z,100.00
2023-01-07T02:09:13.751Z,100.00
2023-01-07T02:11:43.297Z,100.00
2023-01-07T02:14:03.348Z,100.00
2023-01-07T02:16:16.049Z,100.00
2023-01-07T02:18:38.205Z,100.00
2023-01-07T02:21:03.675Z,100.00
2023-01-07T02:23:42.531Z,100.00
2023-01-07T02:26:26.732Z,100.00
2023-01-07T02:29:01.788Z,100.00
2023-01-07T02:31:39.391Z,100.00
2023-01-07T02:34:00.558Z,100.00
2023-01-07T02:36:29.065Z,100.00
2023-01-07T02:38:45.756Z,100.00
2023-01-07T02:41:05.521Z,100.00
2023-01-07T02:43:18.411Z,100.00
2023-01-07T02:45:30.786Z,100.00
2023-01-07T02:47:39.566Z,100.00
2023-01-07T02:49:44.420Z,100.00
2023-01-07T02:51:48.087Z,100.00
2023-01-07T02:53:51.332Z,100.00
2023-01-07T02:56:09.031Z,100.00
2023-01-07T02:58:43.303Z,100.00
2023-01-07T03:01:09.737Z,100.00
2023-01-07T03:03:25.906Z,100.00
2023-01-07T03:05:42.872Z,100.00
2023-01-07T03:07:58.266Z,100.00
2023-01-07T03:10:07.092Z,100.00
2023-01-07T03:12:17.462Z,100.00
2023-01-07T03:14:24.271Z,100.00
2023-01-07T03:16:35.218Z,100.00
2023-01-07T03:18:44.382Z,100.00
2023-01-07T03:20:54.830Z,100.00
2023-01-07T03:22:59.551Z,100.00
2023-01-07T03:25:04.273Z,100.00
2023-01-07T03:27:09.483Z,100.00
2023-01-07T03:29:16.256Z,100.00
2023-01-07T03:31:23.579Z,100.00
2023-01-07T03:33:33.882Z,100.00
2023-01-07T03:35:40.196Z,100.00
2023-01-07T03:37:48.182Z,100.00
2023-01-07T03:39:52.206Z,100.00
2023-01-07T03:42:14.034Z,100.00
2023-01-07T03:44:17.365Z,100.00
2023-01-07T03:46:20.781Z,100.00
2023-01-07T03:48:24.556Z,100.00
2023-01-07T03:50:28.293Z,100.00
2023-01-07T03:52:32.372Z,100.00
2023-01-07T03:54:37.257Z,100.00
2023-01-07T03:56:41.048Z,100.00
2023-01-07T03:58:44.425Z,100.00
2023-01-07T04:00:47.721Z,100.00
2023-01-07T04:02:55.452Z,100.00
2023-01-07T04:05:04.281Z,100.00
2023-01-07T04:07:08.375Z,100.00
2023-01-07T04:09:12.876Z,100.00
2023-01-07T04:11:17.653Z,100.00
2023-01-07T04:13:21.259Z,100.00
2023-01-07T04:15:26.472Z,100.00
2023-01-07T04:17:30.091Z,100.00
2023-01-07T04:19:34.624Z,100.00
2023-01-07T04:21:38.013Z,100.00
2023-01-07T04:23:41.962Z,100.00
2023-01-07T04:25:48.324Z,100.00
2023-01-07T04:27:56.625Z,100.00
2023-01-07T04:30:00.360Z,100.00
2023-01-07T04:32:05.847Z,100.00
2023-01-07T04:34:11.223Z,100.00
2023-01-07T04:36:14.561Z,100.00
2023-01-07T04:38:18.429Z,100.00
2023-01-07T04:40:21.690Z,100.00
2023-01-07T04:42:25.086Z,100.00
2023-01-07T04:44:30.100Z,100.00
2023-01-07T04:46:33.468Z,100.00
2023-01-07T04:48:36.951Z,100.00
2023-01-07T04:50:40.478Z,100.00
2023-01-07T04:52:44.301Z,100.00
2023-01-07T04:54:47.827Z,100.00
2023-01-07T04:56:51.646Z,100.00
2023-01-07T04:58:55.154Z,100.00
2023-01-07T05:01:03.428Z,100.00
2023-01-07T05:03:08.503Z,100.00
2023-01-07T05:05:12.393Z,100.00
2023-01-07T05:07:16.482Z,100.00
2023-01-07T05:09:19.795Z,100.00
2023-01-07T05:11:23.170Z,100.00
2023-01-07T05:13:31.752Z,100.00
2023-01-07T05:15:36.842Z,100.00
2023-01-07T05:17:42.636Z,100.00
2023-01-07T05:19:45.934Z,100.00
2023-01-07T05:21:50.377Z,100.00
2023-01-07T05:23:54.487Z,100.00
2023-01-07T05:25:58.754Z,100.00
2023-01-07T05:28:02.239Z,100.00
2023-01-07T05:30:08.645Z,100.00
2023-01-07T05:32:11.959Z,100.00
2023-01-07T05:34:18.396Z,100.00
2023-01-07T05:36:22.360Z,100.00
2023-01-07T05:38:25.836Z,100.00
2023-01-07T05:40:29.261Z,100.00
2023-01-07T05:42:32.478Z,100.00
2023-01-07T05:44:36.619Z,100.00
2023-01-07T05:46:39.904Z,100.00
2023-01-07T05:48:43.258Z,100.00
2023-01-07T05:50:47.901Z,100.00
2023-01-07T05:52:52.245Z,100.00
2023-01-07T05:54:55.499Z,100.00
2023-01-07T05:56:58.718Z,100.00
2023-01-07T05:59:02.489Z,100.00
2023-01-07T06:01:06.016Z,100.00
2023-01-07T06:03:11.572Z,100.00
2023-01-07T06:05:14.827Z,100.00
2023-01-07T06:07:19.551Z,100.00
2023-01-07T06:09:22.950Z,100.00
2023-01-07T06:11:26.154Z,100.00
2023-01-07T06:13:29.722Z,100.00
2023-01-07T06:15:33.083Z,100.00
2023-01-07T06:17:36.763Z,100.00
2023-01-07T06:19:40.055Z,100.00
2023-01-07T06:21:43.386Z,100.00
2023-01-07T06:23:48.096Z,100.00
2023-01-07T06:25:51.902Z,100.00
2023-01-07T06:27:55.091Z,100.00
2023-01-07T06:29:58.457Z,100.00
2023-01-07T06:32:01.717Z,100.00
2023-01-07T06:34:05.147Z,100.00
2023-01-07T06:36:09.267Z,100.00
2023-01-07T06:38:12.588Z,100.00
2023-01-07T06:40:17.341Z,100.00
2023-01-07T06:42:20.739Z,100.00
2023-01-07T06:44:23.935Z,100.00
2023-01-07T06:46:27.450Z,100.00
2023-01-07T06:48:30.767Z,100.00
2023-01-07T06:50:34.067Z,100.00
2023-01-07T06:52:37.306Z,100.00
2023-01-07T06:54:40.512Z,100.00
2023-01-07T06:56:45.175Z,100.00
2023-01-07T06:58:48.573Z,100.00
2023-01-07T07:00:51.857Z,100.00
2023-01-07T07:02:55.253Z,100.00
2023-01-07T07:04:58.502Z,100.00
2023-01-07T07:07:01.790Z,100.00
2023-01-07T07:09:05.257Z,100.00
2023-01-07T07:11:08.526Z,100.00
2023-01-07T07:13:13.232Z,100.00
2023-01-07T07:15:16.605Z,100.00
2023-01-07T07:17:19.839Z,100.00
2023-01-07T07:19:23.214Z,100.00
2023-01-07T07:21:26.459Z,100.00
2023-01-07T07:23:29.900Z,100.00
2023-01-07T07:25:33.135Z,100.00
2023-01-07T07:27:36.431Z,100.00
2023-01-07T07:29:41.071Z,100.00
2023-01-07T07:31:44.557Z,100.00
2023-01-07T07:33:47.827Z,100.00
2023-01-07T07:35:51.200Z,100.00
2023-01-07T07:37:54.532Z,100.00
2023-01-07T07:39:58.646Z,100.00
2023-01-07T07:42:04.090Z,100.00
2023-01-07T07:44:07.410Z,100.00
2023-01-07T07:46:12.269Z,100.00
2023-01-07T07:48:16.828Z,100.00
2023-01-07T07:50:20.205Z,100.00
2023-01-07T07:52:23.964Z,100.00
2023-01-07T07:54:28.544Z,100.00
2023-01-07T07:56:32.110Z,100.00
2023-01-07T07:58:35.395Z,100.00
2023-01-07T08:00:38.764Z,100.00
2023-01-07T08:02:43.498Z,100.00
2023-01-07T08:04:46.892Z,100.00
2023-01-07T08:06:50.395Z,100.00
2023-01-07T08:08:53.662Z,100.00
2023-01-07T08:10:57.094Z,100.00
2023-01-07T08:13:00.476Z,100.00
2023-01-07T08:15:03.811Z,100.00
2023-01-07T08:17:07.254Z,100.00
2023-01-07T08:19:12.108Z,100.00
2023-01-07T08:21:15.372Z,100.00
2023-01-07T08:23:18.925Z,100.00
2023-01-07T08:25:22.276Z,100.00
2023-01-07T08:27:25.924Z,100.00
2023-01-07T08:29:29.363Z,100.00
2023-01-07T08:31:32.770Z,100.00
2023-01-07T08:33:40.039Z,100.00
2023-01-07T08:35:45.690Z,100.00
2023-01-07T08:37:49.112Z,100.00
2023-01-07T08:39:52.354Z,100.00
2023-01-07T08:41:55.702Z,100.00
2023-01-07T08:43:58.870Z,100.00
2023-01-07T08:46:02.136Z,100.00
2023-01-07T08:48:06.194Z,100.00
2023-01-07T08:50:10.124Z,100.00
2023-01-07T08:52:14.739Z,100.00
2023-01-07T08:54:18.316Z,100.00
2023-01-07T08:56:22.913Z,100.00
2023-01-07T08:58:26.578Z,100.00
2023-01-07T09:00:30.104Z,100.00
2023-01-07T09:02:33.488Z,100.00
2023-01-07T09:04:36.876Z,100.00
2023-01-07T09:06:40.128Z,100.00
2023-01-07T09:08:45.232Z,100.00
2023-01-07T09:10:48.768Z,100.00
2023-01-07T09:12:52.620Z,100.00
2023-01-07T09:14:56.361Z,100.00
2023-01-07T09:16:59.620Z,100.00
2023-01-07T09:19:02.895Z,100.00
2023-01-07T09:21:06.306Z,100.00
2023-01-07T09:23:09.815Z,100.00
2023-01-07T09:25:14.835Z,100.00
2023-01-07T09:27:19.010Z,100.00
2023-01-07T09:29:22.502Z,99.80
2023-01-07T09:31:25.795Z,99.71
2023-01-07T09:33:29.210Z,98.77
2023-01-07T09:35:32.522Z,99.13
2023-01-07T09:37:35.908Z,98.63
2023-01-07T09:39:39.168Z,98.46
2023-01-07T09:41:55.489Z,98.05
2023-01-07T09:44:17.086Z,98.30
2023-01-07T09:46:20.692Z,98.21
2023-01-07T09:48:30.912Z,98.29
2023-01-07T09:50:45.349Z,98.36
2023-01-07T09:52:53.109Z,98.06
2023-01-07T09:55:04.385Z,97.86
2023-01-07T09:57:12.999Z,98.15
2023-01-07T09:59:18.552Z,98.19
2023-01-07T10:01:28.258Z,98.59
2023-01-07T10:03:51.348Z,98.36
2023-01-07T10:06:05.547Z,97.97
2023-01-07T10:08:31.682Z,97.80
2023-01-07T10:10:43.498Z,97.42
2023-01-07T10:12:55.829Z,96.30
2023-01-07T10:15:12.604Z,96.58
2023-01-07T10:17:29.654Z,95.90
2023-01-07T10:19:44.684Z,95.70
2023-01-07T10:21:54.929Z,95.05
2023-01-07T10:24:04.230Z,94.35
2023-01-07T10:26:14.887Z,94.29
2023-01-07T10:28:26.581Z,94.35
2023-01-07T10:30:37.055Z,93.92
2023-01-07T10:32:40.633Z,93.53
2023-01-07T10:34:47.890Z,93.36
2023-01-07T10:37:02.147Z,93.07
2023-01-07T10:39:18.130Z,92.97
2023-01-07T10:41:27.636Z,92.72
2023-01-07T10:43:47.969Z,92.72
2023-01-07T10:46:19.630Z,92.67
2023-01-07T10:48:49.874Z,92.97
2023-01-07T10:51:04.089Z,93.41
2023-01-07T10:53:22.107Z,93.50
2023-01-07T10:55:54.826Z,93.45
2023-01-07T10:57:58.420Z,93.49
2023-01-07T11:00:06.549Z,92.84
2023-01-07T11:02:18.160Z,93.07
2023-01-07T11:04:22.431Z,92.47
2023-01-07T11:06:40.875Z,91.67
2023-01-07T11:08:45.231Z,92.50
2023-01-07T11:10:49.502Z,92.21
2023-01-07T11:12:55.761Z,92.81
2023-01-07T11:15:02.591Z,92.57
2023-01-07T11:17:15.351Z,92.62
2023-01-07T11:19:20.054Z,92.51
2023-01-07T11:21:43.311Z,91.83
2023-01-07T11:23:47.648Z,90.85
2023-01-07T11:25:51.019Z,89.46
2023-01-07T11:27:54.485Z,89.42
2023-01-07T11:30:00.356Z,89.15
2023-01-07T11:32:05.698Z,87.62
2023-01-07T11:34:20.554Z,85.79
2023-01-07T11:36:40.619Z,85.00
2023-01-07T11:38:44.760Z,83.78
2023-01-07T11:40:58.293Z,84.13
2023-01-07T11:43:04.816Z,83.58
2023-01-07T11:45:16.627Z,83.45
2023-01-07T11:47:20.867Z,83.39
2023-01-07T11:49:28.858Z,83.23
2023-01-07T11:51:41.466Z,83.91
2023-01-07T11:53:47.589Z,83.66
2023-01-07T11:56:01.930Z,83.96
2023-01-07T11:58:30.141Z,84.01
2023-01-07T12:00:31.732Z,83.18
2023-01-07T12:02:35.858Z,83.55
2023-01-07T12:04:41.173Z,83.72
2023-01-07T12:06:47.435Z,84.06
2023-01-07T12:08:56.876Z,84.59
2023-01-07T12:11:07.185Z,84.30
2023-01-07T12:13:21.419Z,84.54
2023-01-07T12:15:28.736Z,84.74
2023-01-07T12:17:35.187Z,84.27
2023-01-07T12:20:12.078Z,84.74
2023-01-07T12:22:25.533Z,84.54
2023-01-07T12:24:53.049Z,84.92
2023-01-07T12:27:06.534Z,84.60
2023-01-07T12:29:15.701Z,84.14
2023-01-07T12:31:29.601Z,83.97
2023-01-07T12:34:02.740Z,83.42
2023-01-07T12:36:15.218Z,83.73
2023-01-07T12:38:23.605Z,83.83
2023-01-07T12:40:34.370Z,83.10
2023-01-07T12:42:42.169Z,83.27
2023-01-07T12:44:57.631Z,82.44
2023-01-07T12:47:31.057Z,82.49
2023-01-07T12:49:36.795Z,82.58
2023-01-07T12:51:50.995Z,82.12
2023-01-07T12:54:01.176Z,81.90
2023-01-07T12:56:13.566Z,81.20
2023-01-07T12:58:21.617Z,81.14
2023-01-07T13:00:28.393Z,80.46
2023-01-07T13:02:39.637Z,80.68
2023-01-07T13:04:51.670Z,79.80
2023-01-07T13:07:01.684Z,79.60
2023-01-07T13:09:16.373Z,79.65
2023-01-07T13:11:41.594Z,79.40
2023-01-07T13:13:48.805Z,80.04
2023-01-07T13:15:53.298Z,80.23
2023-01-07T13:17:58.552Z,79.74
2023-01-07T13:20:04.733Z,80.00
2023-01-07T13:22:16.802Z,79.90
2023-01-07T13:24:56.545Z,79.81
2023-01-07T13:27:11.856Z,79.61
2023-01-07T13:29:32.398Z,78.76
2023-01-07T13:32:01.774Z,78.27
2023-01-07T13:34:18.823Z,78.73
2023-01-07T13:36:32.730Z,78.49
2023-01-07T13:38:55.789Z,77.78
2023-01-07T13:41:28.167Z,76.63
2023-01-07T13:43:55.345Z,75.59
2023-01-07T13:46:04.003Z,75.53
2023-01-07T13:48:18.422Z,75.64
2023-01-07T13:50:26.523Z,75.94
2023-01-07T13:52:33.724Z,74.84
2023-01-07T13:55:01.693Z,73.55
2023-01-07T13:57:41.931Z,72.16
2023-01-07T13:59:49.942Z,71.84
2023-01-07T14:02:26.052Z,72.21
2023-01-07T14:04:37.446Z,73.04
2023-01-07T14:06:43.633Z,72.95
2023-01-07T14:08:50.747Z,73.23
2023-01-07T14:10:56.973Z,73.22
2023-01-07T14:13:21.663Z,73.69
2023-01-07T14:15:51.982Z,73.21
2023-01-07T14:18:09.916Z,73.24
2023-01-07T14:20:19.875Z,73.59
2023-01-07T14:22:34.672Z,73.54
2023-01-07T14:25:05.167Z,73.63
2023-01-07T14:27:27.744Z,73.96
2023-01-07T14:29:43.911Z,72.70
2023-01-07T14:31:47.904Z,72.17
2023-01-07T14:33:54.517Z,72.40
2023-01-07T14:36:01.040Z,71.71
2023-01-07T14:38:56.993Z,70.91
2023-01-07T14:41:09.515Z,70.69
2023-01-07T14:43:50.296Z,71.51
2023-01-07T14:45:56.323Z,70.83
2023-01-07T14:48:00.139Z,71.93
2023-01-07T14:50:16.435Z,72.34
2023-01-07T14:52:44.575Z,72.25
2023-01-07T14:55:27.552Z,73.06
2023-01-07T14:57:44.349Z,72.79
2023-01-07T15:00:22.804Z,73.39
2023-01-07T15:02:48.177Z,73.05
2023-01-07T15:05:14.634Z,73.00
2023-01-07T15:07:22.332Z,72.25
2023-01-07T15:09:47.005Z,72.82
2023-01-07T15:12:14.205Z,72.80
2023-01-07T15:14:56.384Z,73.38
2023-01-07T15:17:01.588Z,74.09
2023-01-07T15:19:05.119Z,74.28
2023-01-07T15:21:20.158Z,74.47
2023-01-07T15:23:31.256Z,74.41
2023-01-07T15:25:51.214Z,74.73
2023-01-07T15:28:02.995Z,75.34
2023-01-07T15:30:22.585Z,75.20
2023-01-07T15:32:39.448Z,74.94
2023-01-07T15:34:42.978Z,75.66
2023-01-07T15:36:49.880Z,76.05
2023-01-07T15:38:55.421Z,76.35
2023-01-07T15:41:00.788Z,75.88
2023-01-07T15:43:06.786Z,76.40
2023-01-07T15:45:17.576Z,76.75
2023-01-07T15:47:37.689Z,77.34
2023-01-07T15:49:42.327Z,77.41
2023-01-07T15:51:49.299Z,77.77
2023-01-07T15:53:56.287Z,78.24
2023-01-07T15:56:04.508Z,78.59
2023-01-07T15:58:16.898Z,78.60
2023-01-07T16:00:21.102Z,79.06
2023-01-07T16:02:29.504Z,79.53
2023-01-07T16:04:37.529Z,79.92
2023-01-07T16:06:45.678Z,80.07
2023-01-07T16:08:49.489Z,80.34
2023-01-07T16:11:01.945Z,80.48
2023-01-07T16:13:07.935Z,81.06
2023-01-07T16:15:29.783Z,80.59
2023-01-07T16:17:33.358Z,80.74
2023-01-07T16:19:37.049Z,80.72
2023-01-07T16:21:45.024Z,81.14
2023-01-07T16:23:48.843Z,80.89
2023-01-07T16:25:58.232Z,81.10
2023-01-07T16:28:02.579Z,81.01
2023-01-07T16:30:08.124Z,81.22
2023-01-07T16:32:14.330Z,81.22
2023-01-07T16:34:50.910Z,81.16
2023-01-07T16:36:57.978Z,81.04
2023-01-07T16:39:08.175Z,81.11
2023-01-07T16:41:21.906Z,81.34
2023-01-07T16:43:34.864Z,81.52
2023-01-07T16:45:39.149Z,81.62
2023-01-07T16:47:44.373Z,82.13
2023-01-07T16:49:47.909Z,82.76
2023-01-07T16:51:53.816Z,83.07
2023-01-07T16:54:40.316Z,83.28
2023-01-07T16:56:49.849Z,83.65
2023-01-07T16:58:55.931Z,83.51
2023-01-07T17:01:03.041Z,83.99
2023-01-07T17:03:13.152Z,84.55
2023-01-07T17:05:19.642Z,85.30
2023-01-07T17:07:25.394Z,85.52
2023-01-07T17:09:33.995Z,85.83
2023-01-07T17:11:40.153Z,85.75
2023-01-07T17:13:44.358Z,86.36
2023-01-07T17:15:49.276Z,86.63
2023-01-07T17:17:53.051Z,86.32
2023-01-07T17:20:15.495Z,86.82
2023-01-07T17:22:31.302Z,86.70
2023-01-07T17:24:48.897Z,87.26
2023-01-07T17:26:53.098Z,89.23
2023-01-07T17:29:00.814Z,91.19
2023-01-07T17:31:05.604Z,91.94
2023-01-07T17:33:17.411Z,92.97
2023-01-07T17:35:25.596Z,94.36
2023-01-07T17:37:29.715Z,95.74
2023-01-07T17:39:33.631Z,96.30
2023-01-07T17:41:56.982Z,96.54
2023-01-07T17:44:01.278Z,97.21
2023-01-07T17:46:07.276Z,97.01
2023-01-07T17:48:15.480Z,97.32
2023-01-07T17:50:22.528Z,97.81
2023-01-07T17:52:27.349Z,98.26
2023-01-07T17:54:32.377Z,97.92
2023-01-07T17:56:36.769Z,97.88
2023-01-07T17:58:42.181Z,97.89
2023-01-07T18:00:46.282Z,97.46
2023-01-07T18:02:51.080Z,97.00
2023-01-07T18:04:55.097Z,96.14
2023-01-07T18:07:00.561Z,95.04
2023-01-07T18:09:05.353Z,94.88
2023-01-07T18:11:29.965Z,94.64
2023-01-07T18:13:33.980Z,93.97
2023-01-07T18:15:38.226Z,93.80
2023-01-07T18:17:42.689Z,94.03
2023-01-07T18:19:46.686Z,94.15
2023-01-07T18:21:51.116Z,94.30
2023-01-07T18:23:57.377Z,94.43
2023-01-07T18:26:01.724Z,94.43
2023-01-07T18:28:06.301Z,94.45
2023-01-07T18:30:14.730Z,94.62
2023-01-07T18:32:18.723Z,94.62
2023-01-07T18:34:23.483Z,94.66
2023-01-07T18:36:28.579Z,95.04
2023-01-07T18:38:34.824Z,94.97
2023-01-07T18:40:44.215Z,94.45
2023-01-07T18:42:49.272Z,94.45
2023-01-07T18:44:56.814Z,94.00
2023-01-07T18:47:04.170Z,94.12
2023-01-07T18:49:09.430Z,93.93
2023-01-07T18:51:13.709Z,93.82
2023-01-07T18:53:18.285Z,93.57
2023-01-07T18:55:27.614Z,93.40
2023-01-07T18:57:33.847Z,93.43
2023-01-07T18:59:39.213Z,92.88
2023-01-07T19:01:43.714Z,92.95
2023-01-07T19:03:48.609Z,92.96
2023-01-07T19:05:52.930Z,92.99
2023-01-07T19:07:56.983Z,92.46
2023-01-07T19:10:01.015Z,92.30
2023-01-07T19:12:05.497Z,91.91
2023-01-07T19:14:12.239Z,91.41
2023-01-07T19:16:16.310Z,90.84
2023-01-07T19:18:20.320Z,91.20
2023-01-07T19:20:24.062Z,91.27
2023-01-07T19:22:27.826Z,90.73
2023-01-07T19:24:32.040Z,90.49
2023-01-07T19:26:36.539Z,90.52
2023-01-07T19:28:41.097Z,90.45
2023-01-07T19:30:46.773Z,89.98
2023-01-07T19:32:51.292Z,89.53
2023-01-07T19:34:55.203Z,88.93
2023-01-07T19:36:59.154Z,88.44
2023-01-07T19:39:03.880Z,88.46
2023-01-07T19:41:09.992Z,88.31
2023-01-07T19:43:15.532Z,88.35
2023-01-07T19:45:21.392Z,88.76
2023-01-07T19:47:27.665Z,88.38
2023-01-07T19:49:32.156Z,88.63
2023-01-07T19:51:38.622Z,89.13
2023-01-07T19:53:42.516Z,89.23
2023-01-07T19:55:46.231Z,88.63
2023-01-07T19:57:50.001Z,88.91
2023-01-07T19:59:54.280Z,89.09
2023-01-07T20:02:02.942Z,89.52
2023-01-07T20:04:10.283Z,89.95
2023-01-07T20:06:16.101Z,89.71
2023-01-07T20:08:21.326Z,90.90
2023-01-07T20:10:25.266Z,91.99
2023-01-07T20:12:31.652Z,93.04
2023-01-07T20:14:35.824Z,93.53
2023-01-07T20:16:42.109Z,94.46
2023-01-07T20:18:48.030Z,94.24
2023-01-07T20:21:01.295Z,94.53
2023-01-07T20:23:05.279Z,94.90
2023-01-07T20:25:10.601Z,95.00
2023-01-07T20:27:14.538Z,94.31
2023-01-07T20:29:18.928Z,93.74
2023-01-07T20:31:24.712Z,94.10
2023-01-07T20:33:29.829Z,94.24
2023-01-07T20:35:35.230Z,94.73
2023-01-07T20:37:41.335Z,94.24
2023-01-07T20:39:45.467Z,94.08
2023-01-07T20:41:49.415Z,94.06
2023-01-07T20:43:54.557Z,93.85
2023-01-07T20:46:00.392Z,93.14
2023-01-07T20:48:05.675Z,93.33
2023-01-07T20:50:10.695Z,93.04
2023-01-07T20:52:14.907Z,92.97
2023-01-07T20:54:20.259Z,93.36
2023-01-07T20:56:26.584Z,93.27
2023-01-07T20:58:33.594Z,93.28
2023-01-07T21:00:40.926Z,93.52
2023-01-07T21:02:46.187Z,92.89
2023-01-07T21:04:50.536Z,93.27
2023-01-07T21:06:54.495Z,92.89
2023-01-07T21:08:58.508Z,93.02
2023-01-07T21:11:04.225Z,92.80
2023-01-07T21:13:09.280Z,92.97
2023-01-07T21:15:14.434Z,92.73
2023-01-07T21:17:21.132Z,92.93
2023-01-07T21:19:25.181Z,92.95
2023-01-07T21:21:29.748Z,92.33
2023-01-07T21:23:33.933Z,91.91
2023-01-07T21:25:38.299Z,91.89
2023-01-07T21:27:44.357Z,91.07
2023-01-07T21:29:50.608Z,90.44
2023-01-07T21:31:54.867Z,90.36
2023-01-07T21:34:00.039Z,89.67
2023-01-07T21:36:09.009Z,90.11
2023-01-07T21:38:14.415Z,89.52
2023-01-07T21:40:18.831Z,89.71
2023-01-07T21:42:23.203Z,89.51
2023-01-07T21:44:30.823Z,89.19
2023-01-07T21:46:34.715Z,89.68
2023-01-07T21:48:41.247Z,89.66
2023-01-07T21:50:45.291Z,89.87
2023-01-07T21:52:49.529Z,90.22
2023-01-07T21:54:54.145Z,90.04
2023-01-07T21:56:58.301Z,90.73
2023-01-07T21:59:02.340Z,90.59
2023-01-07T22:01:09.090Z,91.07
2023-01-07T22:03:13.096Z,90.99
2023-01-07T22:05:17.811Z,91.20
2023-01-07T22:07:21.953Z,91.04
2023-01-07T22:09:27.130Z,90.91
2023-01-07T22:11:31.067Z,91.36
2023-01-07T22:13:35.079Z,91.64
2023-01-07T22:15:41.647Z,91.70
2023-01-07T22:17:47.792Z,91.14
2023-01-07T22:19:52.064Z,91.55
2023-01-07T22:21:56.774Z,91.25
2023-01-07T22:24:00.916Z,91.68
2023-01-07T22:26:05.897Z,91.38
2023-01-07T22:28:09.893Z,91.84
2023-01-07T22:30:15.621Z,91.82
2023-01-07T22:32:20.171Z,91.47
2023-01-07T22:34:26.240Z,91.50
2023-01-07T22:36:37.442Z,91.87
2023-01-07T22:38:41.590Z,91.82
2023-01-07T22:40:45.688Z,92.01
2023-01-07T22:42:53.610Z,92.12
2023-01-07T22:45:02.830Z,92.29
2023-01-07T22:47:10.841Z,92.28
2023-01-07T22:49:14.641Z,93.55
2023-01-07T22:51:25.286Z,94.97
2023-01-07T22:53:30.341Z,95.89
2023-01-07T22:55:37.218Z,96.46
2023-01-07T22:57:43.016Z,96.57
2023-01-07T22:59:47.346Z,96.79
2023-01-07T23:01:51.238Z,96.52
2023-01-07T23:03:55.335Z,96.58
2023-01-07T23:05:59.012Z,96.43
2023-01-07T23:08:04.715Z,96.12
2023-01-07T23:10:09.233Z,96.02
2023-01-07T23:12:14.540Z,95.75
2023-01-07T23:14:20.104Z,96.05
2023-01-07T23:16:23.705Z,95.53
2023-01-07T23:18:27.708Z,95.56
2023-01-07T23:20:31.605Z,95.21
2023-01-07T23:22:35.738Z,95.28
2023-01-07T23:24:41.063Z,94.77
2023-01-07T23:26:45.841Z,94.37
2023-01-07T23:28:50.621Z,94.36
2023-01-07T23:30:55.949Z,94.08
2023-01-07T23:33:00.284Z,93.88
2023-01-07T23:35:04.492Z,93.67
2023-01-07T23:37:08.598Z,93.65
2023-01-07T23:39:13.246Z,93.63
2023-01-07T23:41:18.582Z,93.57
2023-01-07T23:43:22.371Z,93.47
2023-01-07T23:45:26.321Z,93.33
2023-01-07T23:47:30.460Z,93.65
2023-01-07T23:49:34.285Z,93.24
2023-01-07T23:51:41.031Z,93.27
2023-01-07T23:53:45.500Z,93.07
2023-01-07T23:55:53.284Z,92.68
2023-01-07T23:57:58.583Z,92.66
